sensor_id;sensor_type;location;lat;lon;timestamp;temperature;humidity
41628;DHT22;27321;50.816;6.054;2023-11-19T00:02:34;12.90;85.90
41628;DHT22;27321;50.816;6.054;2023-11-19T00:05:35;12.90;85.90
41628;DHT22;27321;50.816;6.054;2023-11-19T00:08:39;12.90;85.90
41628;DHT22;27321;50.816;6.054;2023-11-19T00:11:40;12.90;85.80
41628;DHT22;27321;50.816;6.054;2023-11-19T00:14:41;12.90;85.90
41628;DHT22;27321;50.816;6.054;2023-11-19T00:17:42;12.90;85.80
41628;DHT22;27321;50.816;6.054;2023-11-19T00:20:45;12.90;85.80
41628;DHT22;27321;50.816;6.054;2023-11-19T00:23:46;12.90;85.90
41628;DHT22;27321;50.816;6.054;2023-11-19T00:26:47;12.90;86.10
41628;DHT22;27321;50.816;6.054;2023-11-19T00:29:48;12.90;86.30
41628;DHT22;27321;50.816;6.054;2023-11-19T00:32:50;12.90;86.30
41628;DHT22;27321;50.816;6.054;2023-11-19T00:35:51;12.90;86.50
41628;DHT22;27321;50.816;6.054;2023-11-19T00:38:52;12.90;86.70
41628;DHT22;27321;50.816;6.054;2023-11-19T00:41:53;12.90;86.80
41628;DHT22;27321;50.816;6.054;2023-11-19T00:44:54;12.90;87.00
41628;DHT22;27321;50.816;6.054;2023-11-19T00:47:55;12.90;87.10
41628;DHT22;27321;50.816;6.054;2023-11-19T00:50:57;13.00;87.10
41628;DHT22;27321;50.816;6.054;2023-11-19T00:53:58;13.00;87.20
41628;DHT22;27321;50.816;6.054;2023-11-19T00:56:59;13.00;87.30
41628;DHT22;27321;50.816;6.054;2023-11-19T01:00:07;13.10;87.40
41628;DHT22;27321;50.816;6.054;2023-11-19T01:03:18;13.00;87.50
41628;DHT22;27321;50.816;6.054;2023-11-19T01:06:29;13.10;87.50
41628;DHT22;27321;50.816;6.054;2023-11-19T01:09:31;13.10;87.50
41628;DHT22;27321;50.816;6.054;2023-11-19T01:12:36;13.10;87.50
41628;DHT22;27321;50.816;6.054;2023-11-19T01:15:39;13.10;87.50
41628;DHT22;27321;50.816;6.054;2023-11-19T01:18:42;13.20;87.40
41628;DHT22;27321;50.816;6.054;2023-11-19T01:21:44;13.20;87.30
41628;DHT22;27321;50.816;6.054;2023-11-19T01:24:45;13.20;87.20
41628;DHT22;27321;50.816;6.054;2023-11-19T01:27:47;13.20;87.20
41628;DHT22;27321;50.816;6.054;2023-11-19T01:30:52;13.20;87.10
41628;DHT22;27321;50.816;6.054;2023-11-19T01:33:53;13.20;87.00
41628;DHT22;27321;50.816;6.054;2023-11-19T01:36:54;13.30;87.00
41628;DHT22;27321;50.816;6.054;2023-11-19T01:39:55;13.30;86.90
41628;DHT22;27321;50.816;6.054;2023-11-19T01:42:56;13.30;86.80
41628;DHT22;27321;50.816;6.054;2023-11-19T01:45:57;13.30;86.90
41628;DHT22;27321;50.816;6.054;2023-11-19T01:48:58;13.30;86.80
41628;DHT22;27321;50.816;6.054;2023-11-19T01:52:00;13.30;86.70
41628;DHT22;27321;50.816;6.054;2023-11-19T01:55:02;13.30;86.70
41628;DHT22;27321;50.816;6.054;2023-11-19T01:58:04;13.30;86.50
41628;DHT22;27321;50.816;6.054;2023-11-19T02:01:07;13.30;86.40
41628;DHT22;27321;50.816;6.054;2023-11-19T02:04:09;13.30;86.10
41628;DHT22;27321;50.816;6.054;2023-11-19T02:07:11;13.30;86.10
41628;DHT22;27321;50.816;6.054;2023-11-19T02:10:14;13.30;86.00
41628;DHT22;27321;50.816;6.054;2023-11-19T02:13:17;13.30;85.80
41628;DHT22;27321;50.816;6.054;2023-11-19T02:16:19;13.30;85.60
41628;DHT22;27321;50.816;6.054;2023-11-19T02:19:20;13.30;85.80
41628;DHT22;27321;50.816;6.054;2023-11-19T02:22:21;13.30;85.70
41628;DHT22;27321;50.816;6.054;2023-11-19T02:25:31;13.30;85.60
41628;DHT22;27321;50.816;6.054;2023-11-19T02:28:33;13.30;85.50
41628;DHT22;27321;50.816;6.054;2023-11-19T02:31:34;13.30;85.20
41628;DHT22;27321;50.816;6.054;2023-11-19T02:34:35;13.30;85.00
41628;DHT22;27321;50.816;6.054;2023-11-19T02:37:38;13.30;84.70
41628;DHT22;27321;50.816;6.054;2023-11-19T02:40:39;13.20;84.60
41628;DHT22;27321;50.816;6.054;2023-11-19T02:43:40;13.30;84.70
41628;DHT22;27321;50.816;6.054;2023-11-19T02:46:41;13.30;84.70
41628;DHT22;27321;50.816;6.054;2023-11-19T02:49:43;13.40;84.80
41628;DHT22;27321;50.816;6.054;2023-11-19T02:52:44;13.40;84.80
41628;DHT22;27321;50.816;6.054;2023-11-19T02:55:46;13.40;84.90
41628;DHT22;27321;50.816;6.054;2023-11-19T02:58:50;13.40;85.00
41628;DHT22;27321;50.816;6.054;2023-11-19T03:01:51;13.40;84.90
41628;DHT22;27321;50.816;6.054;2023-11-19T03:04:52;13.50;84.90
41628;DHT22;27321;50.816;6.054;2023-11-19T03:07:53;13.40;84.80
41628;DHT22;27321;50.816;6.054;2023-11-19T03:10:54;13.40;84.60
41628;DHT22;27321;50.816;6.054;2023-11-19T03:13:55;13.40;84.50
41628;DHT22;27321;50.816;6.054;2023-11-19T03:16:56;13.40;84.40
41628;DHT22;27321;50.816;6.054;2023-11-19T03:19:57;13.40;84.10
41628;DHT22;27321;50.816;6.054;2023-11-19T03:22:58;13.40;83.80
41628;DHT22;27321;50.816;6.054;2023-11-19T03:25:59;13.40;83.60
41628;DHT22;27321;50.816;6.054;2023-11-19T03:28:59;13.40;83.50
41628;DHT22;27321;50.816;6.054;2023-11-19T03:32:02;13.40;83.20
41628;DHT22;27321;50.816;6.054;2023-11-19T03:35:04;13.40;83.00
41628;DHT22;27321;50.816;6.054;2023-11-19T03:38:07;13.30;83.20
41628;DHT22;27321;50.816;6.054;2023-11-19T03:41:11;13.40;83.60
41628;DHT22;27321;50.816;6.054;2023-11-19T03:44:13;13.40;84.10
41628;DHT22;27321;50.816;6.054;2023-11-19T03:47:14;13.40;84.60
41628;DHT22;27321;50.816;6.054;2023-11-19T03:50:15;13.40;84.90
41628;DHT22;27321;50.816;6.054;2023-11-19T03:53:16;13.40;85.00
41628;DHT22;27321;50.816;6.054;2023-11-19T03:56:17;13.50;85.20
41628;DHT22;27321;50.816;6.054;2023-11-19T03:59:18;13.50;85.30
41628;DHT22;27321;50.816;6.054;2023-11-19T04:02:21;13.40;85.00
41628;DHT22;27321;50.816;6.054;2023-11-19T04:05:21;13.40;84.90
41628;DHT22;27321;50.816;6.054;2023-11-19T04:08:22;13.40;84.70
41628;DHT22;27321;50.816;6.054;2023-11-19T04:11:23;13.30;84.40
41628;DHT22;27321;50.816;6.054;2023-11-19T04:14:24;13.30;84.10
41628;DHT22;27321;50.816;6.054;2023-11-19T04:17:26;13.30;83.90
41628;DHT22;27321;50.816;6.054;2023-11-19T04:20:27;13.20;83.80
41628;DHT22;27321;50.816;6.054;2023-11-19T04:23:30;13.20;83.50
41628;DHT22;27321;50.816;6.054;2023-11-19T04:26:31;13.20;83.40
41628;DHT22;27321;50.816;6.054;2023-11-19T04:29:32;13.10;83.10
41628;DHT22;27321;50.816;6.054;2023-11-19T04:32:33;13.10;82.80
41628;DHT22;27321;50.816;6.054;2023-11-19T04:35:35;13.10;82.50
41628;DHT22;27321;50.816;6.054;2023-11-19T04:38:37;13.00;82.50
41628;DHT22;27321;50.816;6.054;2023-11-19T04:41:46;13.00;82.30
41628;DHT22;27321;50.816;6.054;2023-11-19T04:44:50;13.00;82.30
41628;DHT22;27321;50.816;6.054;2023-11-19T04:47:50;13.00;82.20
41628;DHT22;27321;50.816;6.054;2023-11-19T04:50:51;13.00;81.80
41628;DHT22;27321;50.816;6.054;2023-11-19T04:53:53;13.00;81.80
41628;DHT22;27321;50.816;6.054;2023-11-19T04:56:54;12.90;81.70
41628;DHT22;27321;50.816;6.054;2023-11-19T04:59:54;12.90;81.40
41628;DHT22;27321;50.816;6.054;2023-11-19T05:02:55;12.90;81.30
41628;DHT22;27321;50.816;6.054;2023-11-19T05:05:56;12.90;81.00
41628;DHT22;27321;50.816;6.054;2023-11-19T05:08:58;12.90;81.10
41628;DHT22;27321;50.816;6.054;2023-11-19T05:12:03;12.90;81.00
41628;DHT22;27321;50.816;6.054;2023-11-19T05:15:04;12.90;81.00
41628;DHT22;27321;50.816;6.054;2023-11-19T05:18:06;12.90;80.90
41628;DHT22;27321;50.816;6.054;2023-11-19T05:21:06;12.90;80.90
41628;DHT22;27321;50.816;6.054;2023-11-19T05:24:07;13.00;80.60
41628;DHT22;27321;50.816;6.054;2023-11-19T05:27:08;12.90;80.60
41628;DHT22;27321;50.816;6.054;2023-11-19T05:30:11;12.90;80.40
41628;DHT22;27321;50.816;6.054;2023-11-19T05:33:12;12.90;80.30
41628;DHT22;27321;50.816;6.054;2023-11-19T05:36:13;12.80;80.20
41628;DHT22;27321;50.816;6.054;2023-11-19T05:39:14;12.80;80.30
41628;DHT22;27321;50.816;6.054;2023-11-19T05:42:15;12.80;80.50
41628;DHT22;27321;50.816;6.054;2023-11-19T05:45:16;12.90;80.60
41628;DHT22;27321;50.816;6.054;2023-11-19T05:48:17;12.90;80.70
41628;DHT22;27321;50.816;6.054;2023-11-19T05:51:18;12.90;80.90
41628;DHT22;27321;50.816;6.054;2023-11-19T05:54:19;12.90;81.00
41628;DHT22;27321;50.816;6.054;2023-11-19T05:57:20;12.90;80.90
41628;DHT22;27321;50.816;6.054;2023-11-19T06:00:24;12.90;80.50
41628;DHT22;27321;50.816;6.054;2023-11-19T06:03:27;12.90;80.40
41628;DHT22;27321;50.816;6.054;2023-11-19T06:06:28;12.90;80.20
41628;DHT22;27321;50.816;6.054;2023-11-19T06:09:29;12.90;80.10
41628;DHT22;27321;50.816;6.054;2023-11-19T06:12:30;13.00;80.00
41628;DHT22;27321;50.816;6.054;2023-11-19T06:15:33;13.00;80.10
41628;DHT22;27321;50.816;6.054;2023-11-19T06:18:34;13.00;79.80
41628;DHT22;27321;50.816;6.054;2023-11-19T06:21:34;13.00;79.80
41628;DHT22;27321;50.816;6.054;2023-11-19T06:24:37;12.90;79.30
41628;DHT22;27321;50.816;6.054;2023-11-19T06:27:38;12.90;79.50
41628;DHT22;27321;50.816;6.054;2023-11-19T06:30:39;12.90;79.40
41628;DHT22;27321;50.816;6.054;2023-11-19T06:33:40;12.80;79.40
41628;DHT22;27321;50.816;6.054;2023-11-19T06:36:41;12.80;79.40
41628;DHT22;27321;50.816;6.054;2023-11-19T06:39:44;12.90;79.10
41628;DHT22;27321;50.816;6.054;2023-11-19T06:42:44;12.80;78.80
41628;DHT22;27321;50.816;6.054;2023-11-19T06:45:45;12.80;78.80
41628;DHT22;27321;50.816;6.054;2023-11-19T06:48:46;12.80;78.70
41628;DHT22;27321;50.816;6.054;2023-11-19T06:51:47;12.90;78.60
41628;DHT22;27321;50.816;6.054;2023-11-19T06:54:48;12.80;78.50
41628;DHT22;27321;50.816;6.054;2023-11-19T06:57:49;12.80;78.20
41628;DHT22;27321;50.816;6.054;2023-11-19T07:00:50;12.80;78.40
41628;DHT22;27321;50.816;6.054;2023-11-19T07:03:51;12.80;78.00
41628;DHT22;27321;50.816;6.054;2023-11-19T07:06:52;12.70;78.10
41628;DHT22;27321;50.816;6.054;2023-11-19T07:09:54;12.70;78.20
41628;DHT22;27321;50.816;6.054;2023-11-19T07:12:56;12.70;78.30
41628;DHT22;27321;50.816;6.054;2023-11-19T07:15:56;12.60;78.50
41628;DHT22;27321;50.816;6.054;2023-11-19T07:18:58;12.70;78.90
41628;DHT22;27321;50.816;6.054;2023-11-19T07:22:00;12.70;79.40
41628;DHT22;27321;50.816;6.054;2023-11-19T07:25:02;12.60;79.20
41628;DHT22;27321;50.816;6.054;2023-11-19T07:28:04;12.60;79.10
41628;DHT22;27321;50.816;6.054;2023-11-19T07:31:05;12.60;78.80
41628;DHT22;27321;50.816;6.054;2023-11-19T07:34:08;12.60;78.90
41628;DHT22;27321;50.816;6.054;2023-11-19T07:37:09;12.60;78.60
41628;DHT22;27321;50.816;6.054;2023-11-19T07:40:10;12.60;78.60
41628;DHT22;27321;50.816;6.054;2023-11-19T07:43:12;12.60;78.20
41628;DHT22;27321;50.816;6.054;2023-11-19T07:46:13;12.60;78.30
41628;DHT22;27321;50.816;6.054;2023-11-19T07:49:14;12.60;78.10
41628;DHT22;27321;50.816;6.054;2023-11-19T07:52:15;12.60;77.90
41628;DHT22;27321;50.816;6.054;2023-11-19T07:55:16;12.60;77.60
41628;DHT22;27321;50.816;6.054;2023-11-19T07:58:17;12.60;77.50
41628;DHT22;27321;50.816;6.054;2023-11-19T08:01:18;12.60;77.60
41628;DHT22;27321;50.816;6.054;2023-11-19T08:04:19;12.70;77.10
41628;DHT22;27321;50.816;6.054;2023-11-19T08:07:21;12.60;76.70
41628;DHT22;27321;50.816;6.054;2023-11-19T08:10:22;12.60;77.00
41628;DHT22;27321;50.816;6.054;2023-11-19T08:13:23;12.60;76.70
41628;DHT22;27321;50.816;6.054;2023-11-19T08:16:25;12.60;76.50
41628;DHT22;27321;50.816;6.054;2023-11-19T08:19:26;12.70;76.30
41628;DHT22;27321;50.816;6.054;2023-11-19T08:22:27;12.70;76.40
41628;DHT22;27321;50.816;6.054;2023-11-19T08:25:28;12.70;76.30
41628;DHT22;27321;50.816;6.054;2023-11-19T08:28:28;12.70;76.20
41628;DHT22;27321;50.816;6.054;2023-11-19T08:31:29;12.70;76.20
41628;DHT22;27321;50.816;6.054;2023-11-19T08:34:30;12.70;75.90
41628;DHT22;27321;50.816;6.054;2023-11-19T08:37:31;12.70;75.80
41628;DHT22;27321;50.816;6.054;2023-11-19T08:40:32;12.70;75.80
41628;DHT22;27321;50.816;6.054;2023-11-19T08:43:33;12.70;75.90
41628;DHT22;27321;50.816;6.054;2023-11-19T08:46:34;12.80;75.70
41628;DHT22;27321;50.816;6.054;2023-11-19T08:49:35;12.80;75.70
41628;DHT22;27321;50.816;6.054;2023-11-19T08:52:36;12.80;75.60
41628;DHT22;27321;50.816;6.054;2023-11-19T08:55:37;12.80;75.50
41628;DHT22;27321;50.816;6.054;2023-11-19T08:58:37;12.90;75.50
41628;DHT22;27321;50.816;6.054;2023-11-19T09:01:38;12.90;75.40
41628;DHT22;27321;50.816;6.054;2023-11-19T09:04:39;13.00;75.10
41628;DHT22;27321;50.816;6.054;2023-11-19T09:07:41;12.90;75.30
41628;DHT22;27321;50.816;6.054;2023-11-19T09:10:42;13.00;75.00
41628;DHT22;27321;50.816;6.054;2023-11-19T09:13:43;13.00;75.20
41628;DHT22;27321;50.816;6.054;2023-11-19T09:16:46;13.00;74.60
41628;DHT22;27321;50.816;6.054;2023-11-19T09:19:47;13.10;75.10
41628;DHT22;27321;50.816;6.054;2023-11-19T09:22:48;13.10;74.70
41628;DHT22;27321;50.816;6.054;2023-11-19T09:25:49;13.20;74.60
41628;DHT22;27321;50.816;6.054;2023-11-19T09:28:50;13.20;74.70
41628;DHT22;27321;50.816;6.054;2023-11-19T09:31:51;13.30;74.50
41628;DHT22;27321;50.816;6.054;2023-11-19T09:34:52;13.30;74.70
41628;DHT22;27321;50.816;6.054;2023-11-19T09:37:53;13.30;74.50
41628;DHT22;27321;50.816;6.054;2023-11-19T09:40:54;13.30;74.10
41628;DHT22;27321;50.816;6.054;2023-11-19T09:43:55;13.30;74.30
41628;DHT22;27321;50.816;6.054;2023-11-19T09:46:56;13.30;74.50
41628;DHT22;27321;50.816;6.054;2023-11-19T09:49:58;13.40;74.60
41628;DHT22;27321;50.816;6.054;2023-11-19T09:53:00;13.40;73.90
41628;DHT22;27321;50.816;6.054;2023-11-19T09:56:05;13.50;74.00
41628;DHT22;27321;50.816;6.054;2023-11-19T09:59:08;13.50;73.70
41628;DHT22;27321;50.816;6.054;2023-11-19T10:02:10;13.50;73.40
41628;DHT22;27321;50.816;6.054;2023-11-19T10:05:11;13.50;73.60
41628;DHT22;27321;50.816;6.054;2023-11-19T10:08:15;13.60;73.80
41628;DHT22;27321;50.816;6.054;2023-11-19T10:11:18;13.60;74.10
41628;DHT22;27321;50.816;6.054;2023-11-19T10:14:22;13.70;73.80
41628;DHT22;27321;50.816;6.054;2023-11-19T10:17:27;13.80;72.70
41628;DHT22;27321;50.816;6.054;2023-11-19T10:20:34;13.70;72.20
41628;DHT22;27321;50.816;6.054;2023-11-19T10:23:50;13.70;71.70
41628;DHT22;27321;50.816;6.054;2023-11-19T10:26:56;13.80;73.30
41628;DHT22;27321;50.816;6.054;2023-11-19T10:30:00;13.90;73.10
41628;DHT22;27321;50.816;6.054;2023-11-19T10:33:04;13.90;72.70
41628;DHT22;27321;50.816;6.054;2023-11-19T10:36:08;13.90;71.90
41628;DHT22;27321;50.816;6.054;2023-11-19T10:39:09;13.80;72.20
41628;DHT22;27321;50.816;6.054;2023-11-19T10:42:16;13.80;71.80
41628;DHT22;27321;50.816;6.054;2023-11-19T10:45:23;13.80;72.00
41628;DHT22;27321;50.816;6.054;2023-11-19T10:48:24;13.80;71.80
41628;DHT22;27321;50.816;6.054;2023-11-19T10:51:26;13.80;71.90
41628;DHT22;27321;50.816;6.054;2023-11-19T10:54:27;13.80;71.20
41628;DHT22;27321;50.816;6.054;2023-11-19T10:57:29;13.80;71.50
41628;DHT22;27321;50.816;6.054;2023-11-19T11:00:46;13.80;71.70
41628;DHT22;27321;50.816;6.054;2023-11-19T11:03:48;13.80;72.10
41628;DHT22;27321;50.816;6.054;2023-11-19T11:06:52;13.90;72.70
41628;DHT22;27321;50.816;6.054;2023-11-19T11:09:54;13.90;72.80
41628;DHT22;27321;50.816;6.054;2023-11-19T11:12:56;13.90;72.90
41628;DHT22;27321;50.816;6.054;2023-11-19T11:16:04;13.90;72.80
41628;DHT22;27321;50.816;6.054;2023-11-19T11:19:08;13.90;73.10
41628;DHT22;27321;50.816;6.054;2023-11-19T11:22:16;14.00;73.30
41628;DHT22;27321;50.816;6.054;2023-11-19T11:25:28;13.90;72.70
41628;DHT22;27321;50.816;6.054;2023-11-19T11:28:48;13.90;73.00
41628;DHT22;27321;50.816;6.054;2023-11-19T11:38:42;14.00;73.00
41628;DHT22;27321;50.816;6.054;2023-11-19T11:41:43;14.00;73.00
41628;DHT22;27321;50.816;6.054;2023-11-19T11:44:58;14.00;72.80
41628;DHT22;27321;50.816;6.054;2023-11-19T11:48:10;14.00;72.90
41628;DHT22;27321;50.816;6.054;2023-11-19T11:51:11;14.10;72.70
41628;DHT22;27321;50.816;6.054;2023-11-19T11:57:20;14.10;72.20
41628;DHT22;27321;50.816;6.054;2023-11-19T12:03:30;14.20;72.70
41628;DHT22;27321;50.816;6.054;2023-11-19T12:06:32;14.20;72.90
41628;DHT22;27321;50.816;6.054;2023-11-19T12:09:33;14.20;72.40
41628;DHT22;27321;50.816;6.054;2023-11-19T12:12:34;14.30;72.70
41628;DHT22;27321;50.816;6.054;2023-11-19T12:19:03;14.20;73.10
41628;DHT22;27321;50.816;6.054;2023-11-19T12:22:11;14.20;72.90
41628;DHT22;27321;50.816;6.054;2023-11-19T12:25:13;14.20;73.00
41628;DHT22;27321;50.816;6.054;2023-11-19T12:28:14;14.20;72.60
41628;DHT22;27321;50.816;6.054;2023-11-19T12:31:17;14.20;72.50
41628;DHT22;27321;50.816;6.054;2023-11-19T12:34:27;14.30;72.80
41628;DHT22;27321;50.816;6.054;2023-11-19T12:37:28;14.30;72.70
41628;DHT22;27321;50.816;6.054;2023-11-19T12:40:33;14.30;72.20
41628;DHT22;27321;50.816;6.054;2023-11-19T12:43:34;14.30;72.10
41628;DHT22;27321;50.816;6.054;2023-11-19T12:46:37;14.20;71.60
41628;DHT22;27321;50.816;6.054;2023-11-19T12:49:37;14.20;71.70
41628;DHT22;27321;50.816;6.054;2023-11-19T12:52:38;14.20;71.90
41628;DHT22;27321;50.816;6.054;2023-11-19T12:55:39;14.30;72.10
41628;DHT22;27321;50.816;6.054;2023-11-19T12:58:40;14.30;71.60
41628;DHT22;27321;50.816;6.054;2023-11-19T13:01:53;14.30;71.40
41628;DHT22;27321;50.816;6.054;2023-11-19T13:04:55;14.30;71.40
41628;DHT22;27321;50.816;6.054;2023-11-19T13:11:07;14.30;71.30
41628;DHT22;27321;50.816;6.054;2023-11-19T13:14:08;14.30;70.80
41628;DHT22;27321;50.816;6.054;2023-11-19T13:17:12;14.30;69.90
41628;DHT22;27321;50.816;6.054;2023-11-19T13:20:14;14.30;69.70
41628;DHT22;27321;50.816;6.054;2023-11-19T13:23:18;14.30;69.60
41628;DHT22;27321;50.816;6.054;2023-11-19T13:26:19;14.30;69.70
41628;DHT22;27321;50.816;6.054;2023-11-19T13:29:20;14.40;69.70
41628;DHT22;27321;50.816;6.054;2023-11-19T13:32:20;14.50;69.90
41628;DHT22;27321;50.816;6.054;2023-11-19T13:35:21;14.50;69.40
41628;DHT22;27321;50.816;6.054;2023-11-19T13:38:23;14.60;69.20
41628;DHT22;27321;50.816;6.054;2023-11-19T13:41:25;14.60;69.20
41628;DHT22;27321;50.816;6.054;2023-11-19T13:44:26;14.50;68.60
41628;DHT22;27321;50.816;6.054;2023-11-19T13:47:27;14.50;68.60
41628;DHT22;27321;50.816;6.054;2023-11-19T13:50:28;14.40;68.70
41628;DHT22;27321;50.816;6.054;2023-11-19T13:53:29;14.50;68.80
41628;DHT22;27321;50.816;6.054;2023-11-19T13:56:30;14.40;68.40
41628;DHT22;27321;50.816;6.054;2023-11-19T13:59:31;14.40;68.70
41628;DHT22;27321;50.816;6.054;2023-11-19T14:02:33;14.30;68.60
41628;DHT22;27321;50.816;6.054;2023-11-19T14:05:34;14.30;68.20
41628;DHT22;27321;50.816;6.054;2023-11-19T14:08:35;14.30;69.10
41628;DHT22;27321;50.816;6.054;2023-11-19T14:11:36;14.20;69.50
41628;DHT22;27321;50.816;6.054;2023-11-19T14:14:36;14.20;69.20
41628;DHT22;27321;50.816;6.054;2023-11-19T14:17:39;14.20;69.50
41628;DHT22;27321;50.816;6.054;2023-11-19T14:20:40;14.20;69.60
41628;DHT22;27321;50.816;6.054;2023-11-19T14:23:41;14.20;69.90
41628;DHT22;27321;50.816;6.054;2023-11-19T14:26:45;14.10;70.00
41628;DHT22;27321;50.816;6.054;2023-11-19T14:29:47;14.10;70.30
41628;DHT22;27321;50.816;6.054;2023-11-19T14:32:48;14.10;70.50
41628;DHT22;27321;50.816;6.054;2023-11-19T14:35:54;14.10;70.80
41628;DHT22;27321;50.816;6.054;2023-11-19T14:38:58;14.10;70.60
41628;DHT22;27321;50.816;6.054;2023-11-19T14:42:04;14.00;70.90
41628;DHT22;27321;50.816;6.054;2023-11-19T14:45:06;14.00;71.10
41628;DHT22;27321;50.816;6.054;2023-11-19T14:48:08;14.00;71.80
41628;DHT22;27321;50.816;6.054;2023-11-19T14:51:09;14.00;72.30
41628;DHT22;27321;50.816;6.054;2023-11-19T14:54:09;14.00;71.80
41628;DHT22;27321;50.816;6.054;2023-11-19T14:57:10;14.00;71.80
41628;DHT22;27321;50.816;6.054;2023-11-19T15:00:12;13.90;71.80
41628;DHT22;27321;50.816;6.054;2023-11-19T15:03:13;13.90;72.10
41628;DHT22;27321;50.816;6.054;2023-11-19T15:06:17;13.90;71.70
41628;DHT22;27321;50.816;6.054;2023-11-19T15:09:18;14.00;71.70
41628;DHT22;27321;50.816;6.054;2023-11-19T15:12:29;13.90;72.20
41628;DHT22;27321;50.816;6.054;2023-11-19T15:15:30;13.80;72.60
41628;DHT22;27321;50.816;6.054;2023-11-19T15:18:31;13.80;72.40
41628;DHT22;27321;50.816;6.054;2023-11-19T15:21:32;13.70;72.20
41628;DHT22;27321;50.816;6.054;2023-11-19T15:24:34;13.70;72.10
41628;DHT22;27321;50.816;6.054;2023-11-19T15:27:37;13.70;72.00
41628;DHT22;27321;50.816;6.054;2023-11-19T15:30:38;13.60;72.20
41628;DHT22;27321;50.816;6.054;2023-11-19T15:33:39;13.60;71.60
41628;DHT22;27321;50.816;6.054;2023-11-19T15:36:40;13.60;71.20
41628;DHT22;27321;50.816;6.054;2023-11-19T15:39:57;13.60;70.60
41628;DHT22;27321;50.816;6.054;2023-11-19T15:42:59;13.60;70.40
41628;DHT22;27321;50.816;6.054;2023-11-19T15:46:00;13.60;69.90
41628;DHT22;27321;50.816;6.054;2023-11-19T15:49:05;13.60;70.00
41628;DHT22;27321;50.816;6.054;2023-11-19T15:52:07;13.60;69.70
41628;DHT22;27321;50.816;6.054;2023-11-19T15:55:08;13.60;70.10
41628;DHT22;27321;50.816;6.054;2023-11-19T15:58:09;13.60;69.80
41628;DHT22;27321;50.816;6.054;2023-11-19T16:01:10;13.60;69.60
41628;DHT22;27321;50.816;6.054;2023-11-19T16:04:11;13.60;69.40
41628;DHT22;27321;50.816;6.054;2023-11-19T16:07:15;13.60;69.60
41628;DHT22;27321;50.816;6.054;2023-11-19T16:10:17;13.60;69.30
41628;DHT22;27321;50.816;6.054;2023-11-19T16:13:20;13.60;69.40
41628;DHT22;27321;50.816;6.054;2023-11-19T16:16:22;13.70;69.40
41628;DHT22;27321;50.816;6.054;2023-11-19T16:19:23;13.70;69.30
41628;DHT22;27321;50.816;6.054;2023-11-19T16:22:24;13.60;68.90
41628;DHT22;27321;50.816;6.054;2023-11-19T16:25:26;13.60;69.40
41628;DHT22;27321;50.816;6.054;2023-11-19T16:28:29;13.60;69.10
41628;DHT22;27321;50.816;6.054;2023-11-19T16:31:31;13.60;69.30
41628;DHT22;27321;50.816;6.054;2023-11-19T16:34:32;13.60;69.00
41628;DHT22;27321;50.816;6.054;2023-11-19T16:37:39;13.60;69.50
41628;DHT22;27321;50.816;6.054;2023-11-19T16:40:40;13.60;69.50
41628;DHT22;27321;50.816;6.054;2023-11-19T16:43:41;13.60;69.50
41628;DHT22;27321;50.816;6.054;2023-11-19T16:46:42;13.60;69.00
41628;DHT22;27321;50.816;6.054;2023-11-19T16:49:43;13.60;68.70
41628;DHT22;27321;50.816;6.054;2023-11-19T16:52:43;13.60;68.60
41628;DHT22;27321;50.816;6.054;2023-11-19T16:55:44;13.60;68.70
41628;DHT22;27321;50.816;6.054;2023-11-19T16:58:46;13.60;68.30
41628;DHT22;27321;50.816;6.054;2023-11-19T17:01:46;13.50;68.10
41628;DHT22;27321;50.816;6.054;2023-11-19T17:04:49;13.60;68.60
41628;DHT22;27321;50.816;6.054;2023-11-19T17:07:50;13.60;68.50
41628;DHT22;27321;50.816;6.054;2023-11-19T17:10:51;13.60;68.50
41628;DHT22;27321;50.816;6.054;2023-11-19T17:13:56;13.60;68.40
41628;DHT22;27321;50.816;6.054;2023-11-19T17:17:00;13.60;68.50
41628;DHT22;27321;50.816;6.054;2023-11-19T17:20:06;13.50;68.70
41628;DHT22;27321;50.816;6.054;2023-11-19T17:23:09;13.50;68.90
41628;DHT22;27321;50.816;6.054;2023-11-19T17:26:10;13.50;69.00
41628;DHT22;27321;50.816;6.054;2023-11-19T17:29:13;13.60;69.00
41628;DHT22;27321;50.816;6.054;2023-11-19T17:32:38;13.50;69.20
41628;DHT22;27321;50.816;6.054;2023-11-19T17:35:39;13.50;69.50
41628;DHT22;27321;50.816;6.054;2023-11-19T17:38:44;13.60;69.40
41628;DHT22;27321;50.816;6.054;2023-11-19T17:41:45;13.60;69.20
41628;DHT22;27321;50.816;6.054;2023-11-19T17:44:47;13.60;69.70
41628;DHT22;27321;50.816;6.054;2023-11-19T17:47:48;13.60;70.60
41628;DHT22;27321;50.816;6.054;2023-11-19T17:50:50;13.50;70.80
41628;DHT22;27321;50.816;6.054;2023-11-19T17:53:50;13.40;71.00
41628;DHT22;27321;50.816;6.054;2023-11-19T17:56:51;13.40;71.10
41628;DHT22;27321;50.816;6.054;2023-11-19T17:59:52;13.50;71.20
41628;DHT22;27321;50.816;6.054;2023-11-19T18:02:54;13.40;71.00
41628;DHT22;27321;50.816;6.054;2023-11-19T18:05:55;13.50;71.10
41628;DHT22;27321;50.816;6.054;2023-11-19T18:08:56;13.40;71.00
41628;DHT22;27321;50.816;6.054;2023-11-19T18:11:57;13.50;71.30
41628;DHT22;27321;50.816;6.054;2023-11-19T18:14:59;13.50;71.50
41628;DHT22;27321;50.816;6.054;2023-11-19T18:18:00;13.50;71.40
41628;DHT22;27321;50.816;6.054;2023-11-19T18:21:03;13.50;71.80
41628;DHT22;27321;50.816;6.054;2023-11-19T18:24:04;13.40;71.80
41628;DHT22;27321;50.816;6.054;2023-11-19T18:27:06;13.40;72.20
41628;DHT22;27321;50.816;6.054;2023-11-19T18:30:08;13.40;72.70
41628;DHT22;27321;50.816;6.054;2023-11-19T18:33:10;13.30;72.80
41628;DHT22;27321;50.816;6.054;2023-11-19T18:36:12;13.30;73.20
41628;DHT22;27321;50.816;6.054;2023-11-19T18:39:12;13.20;73.50
41628;DHT22;27321;50.816;6.054;2023-11-19T18:42:14;13.20;73.80
41628;DHT22;27321;50.816;6.054;2023-11-19T18:45:15;13.20;74.00
41628;DHT22;27321;50.816;6.054;2023-11-19T18:48:18;13.20;74.60
41628;DHT22;27321;50.816;6.054;2023-11-19T18:51:19;13.10;75.10
41628;DHT22;27321;50.816;6.054;2023-11-19T18:54:20;13.00;75.40
41628;DHT22;27321;50.816;6.054;2023-11-19T18:57:23;13.00;75.70
41628;DHT22;27321;50.816;6.054;2023-11-19T19:00:24;13.10;75.70
41628;DHT22;27321;50.816;6.054;2023-11-19T19:03:26;13.10;75.60
41628;DHT22;27321;50.816;6.054;2023-11-19T19:06:31;13.10;75.40
41628;DHT22;27321;50.816;6.054;2023-11-19T19:09:32;13.10;75.10
41628;DHT22;27321;50.816;6.054;2023-11-19T19:12:33;13.10;75.00
41628;DHT22;27321;50.816;6.054;2023-11-19T19:15:35;13.00;74.80
41628;DHT22;27321;50.816;6.054;2023-11-19T19:18:37;13.00;75.10
41628;DHT22;27321;50.816;6.054;2023-11-19T19:21:38;13.10;74.80
41628;DHT22;27321;50.816;6.054;2023-11-19T19:24:39;13.00;74.80
41628;DHT22;27321;50.816;6.054;2023-11-19T19:27:40;13.00;74.80
41628;DHT22;27321;50.816;6.054;2023-11-19T19:30:41;13.00;74.70